Terminal Aerodrome Forecast
Issued by NWS

Home | Current Version | Previous Version | Text Only | Print | Product List | Glossary On
Versions: 1 2 3 4 5 6 7 8 9 10 11 12 13 14 15 16
000
FTUS46 KLOX 281400 AAA
TAFSBP
TAF AMD
KSBP 281441Z 2815/2912 VRB03KT P6SM SKC
     FM282000 30015KT P6SM SKC
     FM290300 30006KT P6SM SKC
     FM290600 VRB03KT 5SM BR BKN005
     FM291000 VRB03KT 1SM BR OVC003=

USA.gov is the U.S. government's official web portal to all federal, state and local government web resources and services.